createdAt,value
2019-02-07T00:01:23.483Z,98717.00
2019-02-07T00:03:53.198Z,98694.00
2019-02-07T00:06:23.158Z,98690.00
2019-02-07T00:08:53.501Z,98672.00
2019-02-07T00:11:23.530Z,98666.00
2019-02-07T00:13:53.461Z,98651.00
2019-02-07T00:16:23.517Z,98636.00
2019-02-07T00:18:53.229Z,98627.00
2019-02-07T00:21:22.877Z,98617.00
2019-02-07T00:23:52.669Z,98607.00
2019-02-07T00:26:22.338Z,98601.00
2019-02-07T00:28:52.010Z,98590.00
2019-02-07T00:31:22.292Z,98569.00
2019-02-07T00:33:51.966Z,98561.00
2019-02-07T00:36:22.878Z,98544.00
2019-02-07T00:38:52.631Z,98520.00
2019-02-07T00:41:22.368Z,98514.00
2019-02-07T00:43:52.401Z,98500.00
2019-02-07T00:46:22.274Z,98500.00
2019-02-07T00:48:51.950Z,98480.00
2019-02-07T00:51:21.613Z,98475.00
2019-02-07T00:53:51.298Z,98459.00
2019-02-07T00:56:21.263Z,98451.00
2019-02-07T00:58:51.400Z,98442.00
2019-02-07T01:01:21.079Z,98428.00
2019-02-07T01:03:50.712Z,98446.00
2019-02-07T01:06:20.430Z,98426.00
2019-02-07T01:08:50.138Z,98419.00
2019-02-07T01:11:19.787Z,98404.00
2019-02-07T01:13:51.499Z,98388.00
2019-02-07T01:16:23.832Z,98383.00
2019-02-07T01:18:53.643Z,98378.00
2019-02-07T01:21:25.381Z,98365.00
2019-02-07T01:23:55.065Z,98371.00
2019-02-07T01:26:25.511Z,98364.00
2019-02-07T01:28:55.175Z,98357.00
2019-02-07T01:31:24.842Z,98368.00
2019-02-07T01:33:54.521Z,98374.00
2019-02-07T01:36:24.207Z,98374.00
2019-02-07T01:38:53.906Z,98386.00
2019-02-07T01:41:24.008Z,98369.00
2019-02-07T01:43:53.678Z,98346.00
2019-02-07T01:46:23.452Z,98360.00
2019-02-07T01:48:54.509Z,98355.00
2019-02-07T01:51:24.238Z,98350.00
2019-02-07T01:53:54.248Z,98341.00
2019-02-07T01:56:23.901Z,98337.00
2019-02-07T01:58:55.281Z,98331.00
2019-02-07T02:01:24.962Z,98336.00
2019-02-07T02:03:54.601Z,98340.00
2019-02-07T02:06:24.361Z,98341.00
2019-02-07T02:08:54.482Z,98343.00
2019-02-07T02:11:25.613Z,98343.00
2019-02-07T02:13:55.260Z,98333.00
2019-02-07T02:16:26.461Z,98342.00
2019-02-07T02:18:57.041Z,98341.00
2019-02-07T02:21:26.686Z,98329.00
2019-02-07T02:23:56.560Z,98327.00
2019-02-07T02:26:26.831Z,98327.00
2019-02-07T02:28:56.642Z,98311.00
2019-02-07T02:31:26.425Z,98305.00
2019-02-07T02:33:56.088Z,98300.00
2019-02-07T02:36:25.788Z,98299.00
2019-02-07T02:38:55.761Z,98284.00
2019-02-07T02:41:25.495Z,98274.00
2019-02-07T02:43:55.136Z,98263.00
2019-02-07T02:46:24.813Z,98246.00
2019-02-07T02:48:54.559Z,98252.00
2019-02-07T02:51:24.202Z,98238.00
2019-02-07T02:53:56.424Z,98237.00
2019-02-07T02:56:26.082Z,98230.00
2019-02-07T02:58:55.733Z,98219.00
2019-02-07T03:01:30.058Z,98208.00
2019-02-07T03:04:07.086Z,98196.00
2019-02-07T03:06:41.467Z,98206.00
2019-02-07T03:09:14.169Z,98187.00
2019-02-07T03:11:48.585Z,98196.00
2019-02-07T03:14:28.821Z,98193.00
2019-02-07T03:17:00.151Z,98199.00
2019-02-07T03:19:40.705Z,98188.00
2019-02-07T03:22:12.022Z,98194.00
2019-02-07T03:24:52.844Z,98197.00
2019-02-07T03:27:30.399Z,98186.00
2019-02-07T03:30:13.320Z,98190.00
2019-02-07T03:32:44.643Z,98210.00
2019-02-07T03:35:18.915Z,98191.00
2019-02-07T03:37:52.283Z,98177.00
2019-02-07T03:40:23.791Z,98178.00
2019-02-07T03:42:57.776Z,98175.00
2019-02-07T03:45:32.064Z,98163.00
2019-02-07T03:48:04.168Z,98170.00
2019-02-07T03:50:38.513Z,98172.00
2019-02-07T03:53:09.828Z,98181.00
2019-02-07T03:55:44.104Z,98229.00
2019-02-07T03:58:30.689Z,98234.00
2019-02-07T04:01:18.066Z,98203.00
2019-02-07T04:04:06.068Z,98280.00
2019-02-07T04:06:49.401Z,98229.00
2019-02-07T04:09:26.528Z,98257.00
2019-02-07T04:12:03.749Z,98239.00
2019-02-07T04:14:35.028Z,98251.00
2019-02-07T04:17:24.574Z,98257.00
2019-02-07T04:20:12.067Z,98248.00
2019-02-07T04:22:46.170Z,98250.00
2019-02-07T04:25:26.495Z,98290.00
2019-02-07T04:27:57.814Z,98256.00
2019-02-07T04:30:29.088Z,98284.00
2019-02-07T04:33:02.730Z,98274.00
2019-02-07T04:35:45.958Z,98287.00
2019-02-07T04:38:19.968Z,98295.00
2019-02-07T04:41:03.222Z,98285.00
2019-02-07T04:43:37.478Z,98295.00
2019-02-07T04:46:27.036Z,98289.00
2019-02-07T04:49:07.214Z,98308.00
2019-02-07T04:51:50.532Z,98291.00
2019-02-07T04:54:31.264Z,98350.00
2019-02-07T04:57:07.446Z,98306.00
2019-02-07T04:59:38.763Z,98298.00
2019-02-07T05:02:26.474Z,98301.00
2019-02-07T05:05:06.555Z,98325.00
2019-02-07T05:07:46.795Z,98315.00
2019-02-07T05:10:24.289Z,98315.00
2019-02-07T05:13:10.147Z,98328.00
2019-02-07T05:15:53.797Z,98329.00
2019-02-07T05:18:43.512Z,98336.00
2019-02-07T05:21:14.808Z,98356.00
2019-02-07T05:23:46.044Z,98339.00
2019-02-07T05:26:33.535Z,98357.00
2019-02-07T05:29:10.496Z,98368.00
2019-02-07T05:31:59.983Z,98349.00
2019-02-07T05:34:43.516Z,98355.00
2019-02-07T05:37:30.664Z,98362.00
2019-02-07T05:40:04.539Z,98345.00
2019-02-07T05:42:48.169Z,98386.00
2019-02-07T05:45:19.467Z,98367.00
2019-02-07T05:47:50.773Z,98376.00
2019-02-07T05:50:37.631Z,98357.00
2019-02-07T05:53:19.047Z,98388.00
2019-02-07T05:56:08.604Z,98392.00
2019-02-07T05:58:59.175Z,98373.00
2019-02-07T06:01:29.525Z,98395.00
2019-02-07T06:04:01.069Z,98392.00
2019-02-07T06:06:38.405Z,98396.00
2019-02-07T06:09:26.103Z,98400.00
2019-02-07T06:11:57.428Z,98405.00
2019-02-07T06:14:37.505Z,98435.00
2019-02-07T06:17:27.029Z,98425.00
2019-02-07T06:20:10.369Z,98431.00
2019-02-07T06:22:47.593Z,98445.00
2019-02-07T06:25:22.007Z,98433.00
2019-02-07T06:27:56.307Z,98448.00
2019-02-07T06:30:33.450Z,98440.00
2019-02-07T06:33:13.763Z,98459.00
2019-02-07T06:35:45.056Z,98471.00
2019-02-07T06:38:25.092Z,98468.00
2019-02-07T06:40:58.867Z,98463.00
2019-02-07T06:43:32.759Z,98465.00
2019-02-07T06:46:21.903Z,98472.00
2019-02-07T06:48:55.812Z,98463.00
2019-02-07T06:51:43.691Z,98477.00
2019-02-07T06:54:31.018Z,98475.00
2019-02-07T06:57:02.311Z,98499.00
2019-02-07T06:59:49.994Z,98474.00
2019-02-07T07:02:33.284Z,98517.00
2019-02-07T07:05:07.612Z,98514.00
2019-02-07T07:07:54.682Z,98494.00
2019-02-07T07:10:28.769Z,98511.00
2019-02-07T07:13:02.839Z,98500.00
2019-02-07T07:15:50.122Z,98510.00
2019-02-07T07:18:21.411Z,98526.00
2019-02-07T07:21:04.575Z,98520.00
2019-02-07T07:23:41.887Z,98516.00
2019-02-07T07:26:19.316Z,98550.00
2019-02-07T07:28:50.611Z,98526.00
2019-02-07T07:31:21.912Z,98540.00
2019-02-07T07:34:05.351Z,98540.00
2019-02-07T07:36:36.783Z,98531.00
2019-02-07T07:39:13.578Z,98562.00
2019-02-07T07:41:50.568Z,98574.00
2019-02-07T07:44:21.886Z,98561.00
2019-02-07T07:47:11.258Z,98548.00
2019-02-07T07:49:48.535Z,98559.00
2019-02-07T07:52:25.364Z,98555.00
2019-02-07T07:54:56.888Z,98568.00
2019-02-07T07:57:36.904Z,98572.00
2019-02-07T08:00:28.325Z,98577.00
2019-02-07T08:03:15.820Z,98583.00
2019-02-07T08:05:47.139Z,98574.00
2019-02-07T08:08:34.352Z,98580.00
2019-02-07T08:11:08.628Z,98607.00
2019-02-07T08:13:42.716Z,98613.00
2019-02-07T08:16:23.121Z,98621.00
2019-02-07T08:19:02.942Z,98621.00
2019-02-07T08:21:40.091Z,98631.00
2019-02-07T08:24:26.483Z,98629.00
2019-02-07T08:27:18.431Z,98627.00
2019-02-07T08:29:49.749Z,98633.00
2019-02-07T08:32:30.322Z,98624.00
2019-02-07T08:35:04.369Z,98637.00
2019-02-07T08:37:44.361Z,98642.00
2019-02-07T08:40:34.578Z,98641.00
2019-02-07T08:43:14.960Z,98664.00
2019-02-07T08:45:46.272Z,98651.00
2019-02-07T08:48:20.077Z,98668.00
2019-02-07T08:51:06.321Z,98676.00
2019-02-07T08:56:47.929Z,98668.00
2019-02-07T08:59:22.264Z,98666.00
2019-02-07T09:01:53.561Z,98667.00
2019-02-07T09:04:25.326Z,98668.00
2019-02-07T09:07:12.729Z,98687.00
2019-02-07T09:09:46.987Z,98693.00
2019-02-07T09:12:24.364Z,98677.00
2019-02-07T09:15:04.605Z,98669.00
2019-02-07T09:17:39.002Z,98687.00
2019-02-07T09:20:19.297Z,98698.00
2019-02-07T09:22:56.575Z,98684.00
2019-02-07T09:25:34.520Z,98689.00
2019-02-07T09:28:18.681Z,98698.00
2019-02-07T09:31:06.257Z,98698.00
2019-02-07T09:33:51.006Z,98699.00
2019-02-07T09:36:40.490Z,98721.00
2019-02-07T09:39:12.311Z,98713.00
2019-02-07T09:41:43.614Z,98720.00
2019-02-07T09:44:20.397Z,98722.00
2019-02-07T09:47:06.838Z,98732.00
2019-02-07T09:49:38.163Z,98717.00
2019-02-07T09:52:18.463Z,98728.00
2019-02-07T09:54:49.765Z,98755.00
2019-02-07T09:57:36.882Z,98768.00
2019-02-07T10:00:18.684Z,98741.00
2019-02-07T10:03:06.164Z,98773.00
2019-02-07T10:05:39.606Z,98764.00
2019-02-07T10:08:15.958Z,98747.00
2019-02-07T10:10:49.861Z,98771.00
2019-02-07T10:13:39.732Z,98774.00
2019-02-07T10:16:14.134Z,98776.00
2019-02-07T10:19:01.638Z,98791.00
2019-02-07T10:21:45.247Z,98804.00
2019-02-07T10:24:19.198Z,98794.00
2019-02-07T10:26:53.224Z,98804.00
2019-02-07T10:29:24.906Z,98826.00
2019-02-07T10:32:02.079Z,98810.00
2019-02-07T10:34:49.327Z,98840.00
2019-02-07T10:37:37.333Z,98838.00
2019-02-07T10:40:15.812Z,98823.00
2019-02-07T10:43:03.236Z,98823.00
2019-02-07T10:45:50.747Z,98841.00
2019-02-07T10:48:44.523Z,98842.00
2019-02-07T10:51:20.301Z,98863.00
2019-02-07T10:53:51.608Z,98852.00
2019-02-07T10:56:28.519Z,98861.00
2019-02-07T10:59:14.990Z,98870.00
2019-02-07T11:01:46.382Z,98862.00
2019-02-07T11:04:33.037Z,98853.00
2019-02-07T11:07:20.419Z,98870.00
2019-02-07T11:09:54.522Z,98876.00
2019-02-07T11:12:34.498Z,98883.00
2019-02-07T11:15:07.984Z,98926.00
2019-02-07T11:17:46.553Z,98888.00
2019-02-07T11:20:35.002Z,98891.00
2019-02-07T11:23:10.697Z,98901.00
2019-02-07T11:25:50.965Z,98899.00
2019-02-07T11:28:22.290Z,98905.00
2019-02-07T11:31:08.972Z,98910.00
2019-02-07T11:33:40.391Z,98932.00
2019-02-07T11:36:27.141Z,98945.00
2019-02-07T11:39:00.635Z,98948.00
2019-02-07T11:41:35.969Z,98946.00
2019-02-07T11:44:19.508Z,98948.00
2019-02-07T11:46:52.600Z,98961.00
2019-02-07T11:49:38.725Z,98942.00
2019-02-07T11:52:10.150Z,98949.00
2019-02-07T11:54:50.377Z,98962.00
2019-02-07T11:57:21.681Z,98982.00
2019-02-07T12:00:10.415Z,98964.00
2019-02-07T12:02:53.709Z,98964.00
2019-02-07T12:05:25.011Z,98968.00
2019-02-07T12:08:12.835Z,98981.00
2019-02-07T12:10:44.144Z,98971.00
2019-02-07T12:13:24.277Z,98976.00
2019-02-07T12:16:11.518Z,98974.00
2019-02-07T12:18:45.689Z,98981.00
2019-02-07T12:21:17.030Z,98993.00
2019-02-07T12:23:51.632Z,98979.00
2019-02-07T12:26:34.845Z,98991.00
2019-02-07T12:29:21.711Z,98988.00
2019-02-07T12:31:55.693Z,98976.00
2019-02-07T12:34:30.425Z,98978.00
2019-02-07T12:37:01.713Z,99004.00
2019-02-07T12:39:51.238Z,98991.00
2019-02-07T12:42:32.036Z,99001.00
2019-02-07T12:45:06.209Z,99013.00
2019-02-07T12:47:46.210Z,99022.00
2019-02-07T12:50:34.043Z,99015.00
2019-02-07T12:53:09.016Z,99008.00
2019-02-07T12:55:52.370Z,98993.00
2019-02-07T12:58:22.101Z,98997.00
2019-02-07T13:01:05.482Z,99020.00
2019-02-07T13:03:49.278Z,99014.00
2019-02-07T13:06:20.588Z,99015.00
2019-02-07T13:08:55.865Z,99020.00
2019-02-07T13:11:27.185Z,99044.00
2019-02-07T13:14:05.270Z,99019.00
2019-02-07T13:16:52.911Z,99030.00
2019-02-07T13:19:40.289Z,99016.00
2019-02-07T13:22:22.353Z,99037.00
2019-02-07T13:25:08.963Z,99034.00
2019-02-07T13:27:46.122Z,99041.00
2019-02-07T13:30:26.473Z,99040.00
2019-02-07T13:32:58.585Z,99044.00
2019-02-07T13:35:29.888Z,99040.00
2019-02-07T13:38:10.047Z,99033.00
2019-02-07T13:40:57.474Z,99058.00
2019-02-07T13:43:37.720Z,99050.00
2019-02-07T13:46:28.073Z,99048.00
2019-02-07T13:49:15.583Z,99041.00
2019-02-07T13:52:03.467Z,99048.00
2019-02-07T13:54:51.015Z,99041.00
2019-02-07T13:57:40.655Z,99066.00
2019-02-07T14:00:27.919Z,99061.00
2019-02-07T14:02:59.212Z,99106.00
2019-02-07T14:05:38.595Z,99064.00
2019-02-07T14:08:18.659Z,99059.00
2019-02-07T14:10:55.891Z,99066.00
2019-02-07T14:13:41.126Z,99052.00
2019-02-07T14:16:21.654Z,99060.00
2019-02-07T14:18:52.958Z,99063.00
2019-02-07T14:21:26.379Z,99077.00
2019-02-07T14:23:57.698Z,99050.00
2019-02-07T14:26:35.283Z,99067.00
2019-02-07T14:29:15.644Z,99060.00
2019-02-07T14:31:58.963Z,99065.00
2019-02-07T14:34:30.520Z,99077.00
2019-02-07T14:37:07.912Z,99086.00
2019-02-07T14:39:42.050Z,99079.00
2019-02-07T14:42:29.677Z,99075.00
2019-02-07T14:45:01.051Z,99082.00
2019-02-07T14:47:30.727Z,99085.00
2019-02-07T14:50:00.464Z,99107.00
2019-02-07T14:52:30.727Z,99098.00
2019-02-07T14:55:00.396Z,99101.00
2019-02-07T14:57:30.281Z,99118.00
2019-02-07T15:00:00.316Z,99114.00
2019-02-07T15:02:29.991Z,99130.00
2019-02-07T15:05:00.129Z,99101.00
2019-02-07T15:07:29.817Z,99104.00
2019-02-07T15:09:59.657Z,99122.00
2019-02-07T15:12:29.921Z,99099.00
2019-02-07T15:15:00.253Z,99128.00
2019-02-07T15:17:30.378Z,99116.00
2019-02-07T15:20:00.052Z,99116.00
2019-02-07T15:22:30.030Z,99104.00
2019-02-07T15:25:01.150Z,99113.00
2019-02-07T15:27:30.811Z,99127.00
2019-02-07T15:30:00.500Z,99117.00
2019-02-07T15:32:31.647Z,99105.00
2019-02-07T15:35:01.326Z,99106.00
2019-02-07T15:37:31.467Z,99127.00
2019-02-07T15:40:05.610Z,99125.00
2019-02-07T15:42:35.559Z,99127.00
2019-02-07T15:45:09.961Z,99135.00
2019-02-07T15:47:40.111Z,99131.00
2019-02-07T15:50:14.184Z,99119.00
2019-02-07T15:52:46.222Z,99111.00
2019-02-07T15:55:16.959Z,99122.00
2019-02-07T15:57:46.960Z,99114.00
2019-02-07T16:00:22.513Z,99116.00
2019-02-07T16:02:53.432Z,99125.00
2019-02-07T16:05:23.295Z,99157.00
2019-02-07T16:07:53.494Z,99138.00
2019-02-07T16:10:25.507Z,99145.00
2019-02-07T16:12:55.162Z,99144.00
2019-02-07T16:15:25.157Z,99147.00
2019-02-07T16:17:54.841Z,99143.00
2019-02-07T16:20:25.786Z,99155.00
2019-02-07T16:22:55.469Z,99156.00
2019-02-07T16:25:26.862Z,99160.00
2019-02-07T16:27:56.500Z,99148.00
2019-02-07T16:30:26.588Z,99155.00
2019-02-07T16:32:57.747Z,99151.00
2019-02-07T16:35:27.679Z,99161.00
2019-02-07T16:37:59.479Z,99152.00
2019-02-07T16:40:29.861Z,99163.00
2019-02-07T16:42:59.503Z,99170.00
2019-02-07T16:45:29.578Z,99166.00
2019-02-07T16:47:59.724Z,99176.00
2019-02-07T16:50:35.087Z,99174.00
2019-02-07T16:53:05.151Z,99172.00
2019-02-07T16:55:34.827Z,99184.00
2019-02-07T16:58:04.891Z,99181.00
2019-02-07T17:00:37.557Z,99185.00
2019-02-07T17:03:08.406Z,99173.00
2019-02-07T17:05:38.275Z,99190.00
2019-02-07T17:08:08.236Z,99189.00
2019-02-07T17:10:42.415Z,99178.00
2019-02-07T17:13:14.181Z,99196.00
2019-02-07T17:15:44.261Z,99193.00
2019-02-07T17:18:13.943Z,99190.00
2019-02-07T17:20:44.234Z,99189.00
2019-02-07T17:23:16.227Z,99191.00
2019-02-07T17:25:46.195Z,99202.00
2019-02-07T17:28:16.309Z,99212.00
2019-02-07T17:30:46.346Z,99212.00
2019-02-07T17:33:16.195Z,99208.00
2019-02-07T17:35:46.156Z,99204.00
2019-02-07T17:38:15.803Z,99211.00
2019-02-07T17:40:45.495Z,99209.00
2019-02-07T17:43:15.622Z,99212.00
2019-02-07T17:45:45.462Z,99216.00
2019-02-07T17:48:15.137Z,99213.00
2019-02-07T17:50:44.904Z,99223.00
2019-02-07T17:53:15.467Z,99219.00
2019-02-07T17:55:45.407Z,99224.00
2019-02-07T17:58:15.173Z,99228.00
2019-02-07T18:00:56.962Z,99220.00
2019-02-07T18:03:26.627Z,99231.00
2019-02-07T18:05:56.380Z,99230.00
2019-02-07T18:08:26.121Z,99230.00
2019-02-07T18:10:55.786Z,99223.00
2019-02-07T18:13:25.446Z,99232.00
2019-02-07T18:15:57.425Z,99238.00
2019-02-07T18:18:26.518Z,99218.00
2019-02-07T18:20:57.777Z,99219.00
2019-02-07T18:23:27.990Z,99224.00
2019-02-07T18:25:57.773Z,99223.00
2019-02-07T18:28:27.861Z,99220.00
2019-02-07T18:30:59.262Z,99221.00
2019-02-07T18:33:29.094Z,99224.00
2019-02-07T18:35:58.918Z,99219.00
2019-02-07T18:38:29.792Z,99228.00
2019-02-07T18:40:59.979Z,99223.00
2019-02-07T18:43:29.782Z,99216.00
2019-02-07T18:45:59.490Z,99224.00
2019-02-07T18:48:29.168Z,99230.00
2019-02-07T18:50:58.903Z,99234.00
2019-02-07T18:53:28.960Z,99222.00
2019-02-07T18:55:58.722Z,99233.00
2019-02-07T18:58:28.455Z,99227.00
2019-02-07T19:00:58.155Z,99229.00
2019-02-07T19:03:28.038Z,99216.00
2019-02-07T19:05:57.668Z,99214.00
2019-02-07T19:08:27.615Z,99221.00
2019-02-07T19:10:57.276Z,99223.00
2019-02-07T19:13:26.966Z,99206.00
2019-02-07T19:16:00.044Z,99210.00
2019-02-07T19:18:29.715Z,99212.00
2019-02-07T19:20:59.672Z,99216.00
2019-02-07T19:23:29.444Z,99210.00
2019-02-07T19:25:59.135Z,99206.00
2019-02-07T19:28:28.776Z,99209.00
2019-02-07T19:30:58.597Z,99205.00
2019-02-07T19:33:28.272Z,99208.00
2019-02-07T19:35:57.918Z,99212.00
2019-02-07T19:38:27.617Z,99223.00
2019-02-07T19:40:57.258Z,99210.00
2019-02-07T19:43:26.925Z,99213.00
2019-02-07T19:45:58.154Z,99214.00
2019-02-07T19:48:27.916Z,99200.00
2019-02-07T19:50:57.569Z,99205.00
2019-02-07T19:53:27.372Z,99205.00
2019-02-07T19:55:57.159Z,99193.00
2019-02-07T19:58:26.850Z,99205.00
2019-02-07T20:00:56.525Z,99203.00
2019-02-07T20:03:26.162Z,99206.00
2019-02-07T20:05:55.923Z,99198.00
2019-02-07T20:08:25.619Z,99203.00
2019-02-07T20:10:55.614Z,99202.00
2019-02-07T20:13:25.271Z,99209.00
2019-02-07T20:15:55.017Z,99201.00
2019-02-07T20:18:25.468Z,99201.00
2019-02-07T20:20:55.155Z,99211.00
2019-02-07T20:23:24.827Z,99192.00
2019-02-07T20:25:54.895Z,99199.00
2019-02-07T20:28:24.687Z,99192.00
2019-02-07T20:30:54.408Z,99192.00
2019-02-07T20:33:24.076Z,99184.00
2019-02-07T20:35:55.198Z,99173.00
2019-02-07T20:38:25.376Z,99180.00
2019-02-07T20:40:55.167Z,99180.00
2019-02-07T20:43:25.835Z,99180.00
2019-02-07T20:45:55.522Z,99185.00
2019-02-07T20:48:25.173Z,99191.00
2019-02-07T20:50:54.830Z,99196.00
2019-02-07T20:53:24.505Z,99199.00
2019-02-07T20:55:55.638Z,99188.00
2019-02-07T20:58:25.289Z,99182.00
2019-02-07T21:00:55.165Z,99187.00
2019-02-07T21:03:24.901Z,99192.00
2019-02-07T21:05:55.837Z,99188.00
2019-02-07T21:08:25.516Z,99185.00
2019-02-07T21:10:56.940Z,99191.00
2019-02-07T21:13:26.605Z,99198.00
2019-02-07T21:15:56.310Z,99190.00
2019-02-07T21:18:25.987Z,99196.00
2019-02-07T21:20:55.676Z,99195.00
2019-02-07T21:23:25.412Z,99197.00
2019-02-07T21:25:55.273Z,99199.00
2019-02-07T21:28:24.945Z,99187.00
2019-02-07T21:30:55.901Z,99193.00
2019-02-07T21:33:25.819Z,99196.00
2019-02-07T21:35:55.478Z,99197.00
2019-02-07T21:38:26.665Z,99202.00
2019-02-07T21:40:57.090Z,99203.00
2019-02-07T21:43:27.171Z,99202.00
2019-02-07T21:45:56.861Z,99194.00
2019-02-07T21:48:28.165Z,99184.00
2019-02-07T21:50:59.520Z,99196.00
2019-02-07T21:53:29.294Z,99192.00
2019-02-07T21:55:59.257Z,99188.00
2019-02-07T21:58:28.915Z,99193.00
2019-02-07T22:00:58.839Z,99204.00
2019-02-07T22:03:29.262Z,99211.00
2019-02-07T22:05:58.923Z,99193.00
2019-02-07T22:08:28.690Z,99198.00
2019-02-07T22:10:58.704Z,99194.00
2019-02-07T22:13:28.356Z,99199.00
2019-02-07T22:15:58.046Z,99188.00
2019-02-07T22:18:27.712Z,99193.00
2019-02-07T22:20:59.006Z,99190.00
2019-02-07T22:23:28.760Z,99193.00
2019-02-07T22:25:59.516Z,99199.00
2019-02-07T22:28:29.164Z,99180.00
2019-02-07T22:30:58.842Z,99181.00
2019-02-07T22:33:28.505Z,99184.00
2019-02-07T22:35:58.873Z,99185.00
2019-02-07T22:38:28.583Z,99171.00
2019-02-07T22:40:58.782Z,99170.00
2019-02-07T22:43:28.459Z,99183.00
2019-02-07T22:45:58.224Z,99182.00
2019-02-07T22:48:28.013Z,99189.00
2019-02-07T22:50:57.770Z,99181.00
2019-02-07T22:53:27.474Z,99178.00
2019-02-07T22:55:57.121Z,99184.00
2019-02-07T22:58:26.767Z,99176.00
2019-02-07T23:01:03.606Z,99175.00
2019-02-07T23:03:33.332Z,99171.00
2019-02-07T23:06:02.982Z,99164.00
2019-02-07T23:08:32.871Z,99152.00
2019-02-07T23:11:02.594Z,99147.00
2019-02-07T23:13:32.243Z,99146.00
2019-02-07T23:16:01.932Z,99138.00
2019-02-07T23:18:32.256Z,99128.00
2019-02-07T23:21:01.930Z,99125.00
2019-02-07T23:23:32.315Z,99136.00
2019-02-07T23:26:01.970Z,99131.00
2019-02-07T23:28:32.186Z,99134.00
2019-02-07T23:31:02.059Z,99120.00
2019-02-07T23:33:31.746Z,99123.00
2019-02-07T23:36:01.702Z,99121.00
2019-02-07T23:38:31.786Z,99124.00
2019-02-07T23:41:02.345Z,99117.00
2019-02-07T23:43:34.050Z,99109.00
2019-02-07T23:46:04.107Z,99114.00
2019-02-07T23:48:33.767Z,99104.00
2019-02-07T23:51:04.672Z,99103.00
2019-02-07T23:53:34.355Z,99096.00
2019-02-07T23:56:04.630Z,99089.00
2019-02-07T23:58:34.284Z,99092.00
